createdAt,value
2023-07-15T00:01:31.156Z,7.00
2023-07-15T00:03:59.814Z,7.50
2023-07-15T00:06:29.088Z,6.25
2023-07-15T00:08:58.062Z,5.50
2023-07-15T00:11:29.180Z,6.00
2023-07-15T00:13:58.948Z,5.00
2023-07-15T00:16:28.037Z,5.00
2023-07-15T00:18:56.417Z,5.00
2023-07-15T00:21:25.873Z,5.00
2023-07-15T00:24:00.819Z,5.75
2023-07-15T00:26:31.455Z,5.25
2023-07-15T00:28:59.586Z,5.75
2023-07-15T00:31:31.884Z,4.75
2023-07-15T00:34:00.946Z,6.00
2023-07-15T00:36:29.286Z,4.75
2023-07-15T00:38:57.432Z,5.75
2023-07-15T00:41:30.213Z,5.00
2023-07-15T00:44:01.103Z,5.00
2023-07-15T00:46:30.437Z,5.00
2023-07-15T00:48:58.494Z,5.00
2023-07-15T00:51:30.513Z,4.50
2023-07-15T00:53:58.823Z,6.00
2023-07-15T00:56:28.441Z,6.00
2023-07-15T00:58:56.656Z,5.25
2023-07-15T01:01:25.090Z,5.25
2023-07-15T01:03:53.310Z,4.50
2023-07-15T01:06:21.386Z,5.25
2023-07-15T01:08:49.415Z,4.25
2023-07-15T01:11:17.692Z,6.00
2023-07-15T01:13:45.954Z,6.00
2023-07-15T01:16:14.404Z,5.00
2023-07-15T01:18:43.415Z,5.00
2023-07-15T01:21:12.735Z,3.75
2023-07-15T01:23:40.965Z,3.75
2023-07-15T01:26:09.150Z,4.00
2023-07-15T01:28:39.084Z,3.00
2023-07-15T01:31:07.091Z,5.00
2023-07-15T01:33:35.227Z,5.00
2023-07-15T01:36:05.026Z,4.50
2023-07-15T01:38:34.033Z,3.75
2023-07-15T01:41:02.100Z,4.25
2023-07-15T01:43:30.151Z,4.00
2023-07-15T01:46:00.082Z,5.75
2023-07-15T01:48:28.456Z,3.50
2023-07-15T01:50:56.565Z,4.00
2023-07-15T01:53:24.859Z,6.00
2023-07-15T01:55:52.968Z,4.00
2023-07-15T01:58:22.950Z,5.75
2023-07-15T02:00:50.917Z,5.00
2023-07-15T02:03:19.029Z,4.00
2023-07-15T02:05:47.286Z,4.50
2023-07-15T02:08:15.618Z,5.00
2023-07-15T02:10:43.610Z,3.50
2023-07-15T02:13:13.157Z,5.00
2023-07-15T02:15:41.306Z,6.00
2023-07-15T02:18:09.424Z,6.00
2023-07-15T02:20:39.320Z,5.50
2023-07-15T02:23:07.557Z,5.00
2023-07-15T02:25:35.727Z,5.25
2023-07-15T02:28:04.912Z,5.00
2023-07-15T02:30:33.489Z,5.00
2023-07-15T02:33:01.968Z,4.50
2023-07-15T02:35:32.805Z,4.50
2023-07-15T02:38:01.166Z,5.00
2023-07-15T02:40:29.256Z,5.25
2023-07-15T02:42:57.420Z,4.00
2023-07-15T02:45:25.485Z,4.00
2023-07-15T02:47:53.720Z,5.00
2023-07-15T02:50:21.914Z,4.75
2023-07-15T02:52:50.098Z,5.00
2023-07-15T02:55:18.218Z,3.75
2023-07-15T02:57:46.371Z,3.25
2023-07-15T03:00:17.474Z,4.00
2023-07-15T03:02:54.595Z,5.00
2023-07-15T03:05:23.061Z,3.75
2023-07-15T03:07:51.404Z,3.75
2023-07-15T03:10:20.959Z,3.50
2023-07-15T03:12:52.117Z,5.00
2023-07-15T03:15:21.284Z,3.00
2023-07-15T03:17:49.347Z,5.00
2023-07-15T03:20:27.469Z,5.25
2023-07-15T03:22:56.653Z,3.00
2023-07-15T03:25:24.852Z,4.00
2023-07-15T03:27:53.408Z,4.00
2023-07-15T03:30:21.507Z,3.00
2023-07-15T03:32:49.633Z,5.00
2023-07-15T03:35:17.845Z,4.00
2023-07-15T03:37:46.538Z,4.00
2023-07-15T03:40:14.766Z,2.50
2023-07-15T03:42:43.730Z,2.75
2023-07-15T03:45:12.508Z,3.00
2023-07-15T03:47:40.926Z,3.75
2023-07-15T03:50:11.467Z,3.75
2023-07-15T03:52:39.918Z,5.00
2023-07-15T03:55:08.785Z,3.50
2023-07-15T03:57:36.933Z,3.25
2023-07-15T04:00:09.118Z,3.75
2023-07-15T04:02:37.192Z,4.00
2023-07-15T04:05:05.377Z,5.00
2023-07-15T04:07:33.467Z,3.00
2023-07-15T04:10:01.551Z,3.75
2023-07-15T04:12:29.732Z,4.50
2023-07-15T04:14:57.711Z,4.00
2023-07-15T04:17:25.822Z,3.00
2023-07-15T04:19:54.121Z,3.25
2023-07-15T04:22:22.207Z,3.25
2023-07-15T04:24:50.294Z,3.25
2023-07-15T04:27:18.469Z,4.00
2023-07-15T04:29:47.194Z,3.00
2023-07-15T04:32:15.303Z,4.00
2023-07-15T04:34:43.300Z,3.75
2023-07-15T04:37:11.358Z,4.00
2023-07-15T04:39:39.419Z,3.75
2023-07-15T04:42:07.871Z,3.50
2023-07-15T04:44:35.936Z,4.75
2023-07-15T04:47:04.112Z,3.00
2023-07-15T04:49:32.130Z,2.75
2023-07-15T04:52:00.225Z,3.00
2023-07-15T04:54:28.242Z,2.75
2023-07-15T04:56:56.332Z,3.00
2023-07-15T04:59:24.987Z,3.75
2023-07-15T05:01:53.787Z,3.00
2023-07-15T05:04:21.952Z,3.00
2023-07-15T05:06:49.996Z,3.00
2023-07-15T05:09:18.061Z,3.00
2023-07-15T05:11:46.200Z,2.25
2023-07-15T05:14:14.260Z,3.00
2023-07-15T05:16:45.875Z,4.00
2023-07-15T05:19:13.907Z,3.75
2023-07-15T05:21:41.960Z,3.00
2023-07-15T05:24:09.998Z,3.25
2023-07-15T05:26:38.065Z,4.00
2023-07-15T05:29:09.776Z,3.00
2023-07-15T05:31:38.068Z,2.75
2023-07-15T05:34:06.259Z,4.00
2023-07-15T05:36:34.381Z,3.00
2023-07-15T05:39:02.411Z,3.75
2023-07-15T05:41:30.639Z,3.00
2023-07-15T05:43:58.661Z,3.25
2023-07-15T05:46:26.789Z,2.50
2023-07-15T05:48:55.486Z,3.00
2023-07-15T05:51:23.731Z,3.00
2023-07-15T05:53:51.791Z,2.50
2023-07-15T05:56:19.952Z,3.50
2023-07-15T05:58:48.026Z,3.00
2023-07-15T06:01:16.347Z,3.00
2023-07-15T06:03:44.823Z,2.50
2023-07-15T06:06:13.035Z,3.50
2023-07-15T06:08:41.328Z,3.25
2023-07-15T06:11:11.364Z,2.00
2023-07-15T06:13:39.631Z,4.00
2023-07-15T06:16:07.808Z,3.00
2023-07-15T06:18:35.836Z,3.00
2023-07-15T06:21:03.928Z,3.00
2023-07-15T06:23:32.093Z,3.00
2023-07-15T06:26:00.223Z,4.00
2023-07-15T06:28:28.255Z,5.00
2023-07-15T06:31:16.462Z,3.00
2023-07-15T06:33:46.878Z,2.75
2023-07-15T06:36:14.992Z,2.75
2023-07-15T06:38:43.073Z,5.00
2023-07-15T06:41:11.168Z,3.50
2023-07-15T06:43:39.233Z,3.00
2023-07-15T06:46:08.771Z,2.75
2023-07-15T06:48:36.860Z,4.25
2023-07-15T06:51:05.036Z,4.25
2023-07-15T06:53:33.097Z,4.00
2023-07-15T06:56:14.337Z,2.50
2023-07-15T06:58:48.103Z,3.50
2023-07-15T07:01:16.632Z,3.00
2023-07-15T07:03:47.123Z,4.25
2023-07-15T07:06:15.645Z,2.50
2023-07-15T07:08:43.863Z,4.00
2023-07-15T07:11:12.253Z,3.50
2023-07-15T07:13:40.563Z,3.25
2023-07-15T07:16:09.843Z,3.75
2023-07-15T07:18:38.051Z,4.25
2023-07-15T07:21:06.499Z,3.25
2023-07-15T07:23:34.585Z,3.75
2023-07-15T07:26:02.738Z,3.25
2023-07-15T07:28:44.411Z,4.25
2023-07-15T07:31:13.521Z,3.25
2023-07-15T07:33:43.297Z,4.00
2023-07-15T07:36:11.439Z,3.25
2023-07-15T07:38:39.470Z,3.25
2023-07-15T07:41:11.443Z,2.75
2023-07-15T07:43:40.416Z,3.00
2023-07-15T07:46:10.666Z,4.50
2023-07-15T07:48:39.091Z,3.25
2023-07-15T07:51:07.152Z,3.25
2023-07-15T07:53:35.221Z,5.00
2023-07-15T07:56:03.332Z,3.25
2023-07-15T07:58:31.469Z,4.50
2023-07-15T08:00:59.657Z,5.00
2023-07-15T08:03:27.909Z,3.50
2023-07-15T08:05:56.568Z,4.75
2023-07-15T08:08:24.695Z,3.25
2023-07-15T08:10:52.926Z,5.00
2023-07-15T08:13:21.548Z,4.50
2023-07-15T08:15:49.618Z,4.00
2023-07-15T08:18:17.685Z,4.00
2023-07-15T08:20:45.772Z,3.25
2023-07-15T08:23:13.981Z,4.00
2023-07-15T08:25:42.277Z,3.25
2023-07-15T08:28:10.327Z,4.00
2023-07-15T08:30:38.718Z,3.25
2023-07-15T08:33:07.449Z,3.00
2023-07-15T08:35:36.290Z,4.00
2023-07-15T08:38:04.701Z,5.50
2023-07-15T08:40:33.266Z,3.00
2023-07-15T08:43:03.987Z,3.25
2023-07-15T08:45:35.425Z,3.25
2023-07-15T08:48:04.075Z,3.50
2023-07-15T08:50:35.234Z,3.50
2023-07-15T08:53:04.066Z,3.00
2023-07-15T08:55:32.288Z,3.25
2023-07-15T08:58:01.573Z,4.00
2023-07-15T09:00:29.937Z,3.50
2023-07-15T09:02:58.175Z,3.00
2023-07-15T09:05:26.401Z,3.25
2023-07-15T09:07:59.280Z,2.00
2023-07-15T09:10:30.294Z,2.50
2023-07-15T09:12:58.462Z,3.25
2023-07-15T09:15:26.747Z,3.00
2023-07-15T09:17:58.951Z,4.00
2023-07-15T09:20:28.119Z,2.50
2023-07-15T09:22:57.649Z,3.75
2023-07-15T09:25:26.213Z,3.50
2023-07-15T09:27:56.685Z,3.00
2023-07-15T09:30:24.954Z,5.50
2023-07-15T09:32:53.110Z,4.00
2023-07-15T09:35:22.943Z,4.00
2023-07-15T09:37:51.140Z,4.00
2023-07-15T09:40:19.528Z,2.50
2023-07-15T09:42:57.969Z,3.25
2023-07-15T09:45:36.084Z,2.00
2023-07-15T09:48:06.454Z,4.00
2023-07-15T09:50:35.633Z,3.50
2023-07-15T09:53:04.332Z,4.00
2023-07-15T09:55:33.778Z,3.00
2023-07-15T09:58:08.033Z,4.00
2023-07-15T10:00:39.294Z,5.00
2023-07-15T10:03:07.924Z,3.25
2023-07-15T10:05:36.345Z,3.25
2023-07-15T10:08:04.632Z,3.00
2023-07-15T10:10:33.035Z,3.25
2023-07-15T10:13:01.204Z,4.50
2023-07-15T10:15:29.275Z,3.00
2023-07-15T10:17:57.783Z,4.00
2023-07-15T10:20:25.916Z,3.00
2023-07-15T10:22:54.030Z,4.50
2023-07-15T10:25:22.404Z,4.25
2023-07-15T10:27:50.532Z,6.00
2023-07-15T10:30:20.018Z,3.00
2023-07-15T10:33:11.050Z,3.25
2023-07-15T10:35:42.345Z,4.50
2023-07-15T10:38:24.033Z,3.00
2023-07-15T10:41:06.246Z,7.25
2023-07-15T10:43:37.524Z,5.50
2023-07-15T10:46:18.852Z,3.00
2023-07-15T10:48:47.250Z,4.00
2023-07-15T10:51:15.322Z,4.00
2023-07-15T10:53:43.606Z,3.25
2023-07-15T10:56:12.871Z,3.25
2023-07-15T10:58:43.091Z,5.75
2023-07-15T11:01:15.248Z,6.75
2023-07-15T11:03:44.111Z,4.00
2023-07-15T11:06:13.550Z,3.00
2023-07-15T11:08:42.730Z,3.75
2023-07-15T11:11:12.420Z,4.00
2023-07-15T11:13:43.382Z,3.75
2023-07-15T11:16:11.809Z,4.25
2023-07-15T11:18:40.004Z,5.00
2023-07-15T11:21:08.380Z,5.00
2023-07-15T11:23:36.537Z,5.50
2023-07-15T11:26:14.925Z,5.25
2023-07-15T11:28:50.327Z,6.25
2023-07-15T11:31:21.543Z,4.25
2023-07-15T11:33:54.726Z,5.25
2023-07-15T11:36:22.854Z,4.50
2023-07-15T11:38:50.889Z,6.75
2023-07-15T11:41:20.022Z,8.00
2023-07-15T11:43:51.589Z,6.00
2023-07-15T11:46:20.017Z,6.25
2023-07-15T11:48:48.340Z,8.75
2023-07-15T11:51:16.366Z,7.25
2023-07-15T11:53:46.724Z,7.00
2023-07-15T11:56:33.229Z,7.25
2023-07-15T11:59:01.317Z,7.75
2023-07-15T12:01:29.477Z,8.00
2023-07-15T12:03:57.616Z,8.50
2023-07-15T12:06:29.374Z,6.75
2023-07-15T12:09:17.139Z,8.50
2023-07-15T12:11:45.789Z,7.25
2023-07-15T12:14:15.306Z,7.75
2023-07-15T12:16:43.702Z,6.25
2023-07-15T12:19:13.494Z,8.75
2023-07-15T12:21:42.127Z,9.50
2023-07-15T12:24:10.398Z,8.25
2023-07-15T12:26:38.465Z,15.75
2023-07-15T12:29:06.486Z,8.50
2023-07-15T12:31:34.609Z,10.00
2023-07-15T12:34:02.812Z,10.25
2023-07-15T12:36:30.846Z,9.50
2023-07-15T12:38:58.940Z,12.00
2023-07-15T12:41:27.089Z,8.75
2023-07-15T12:43:55.147Z,10.00
2023-07-15T12:46:23.354Z,9.75
2023-07-15T12:48:52.631Z,7.75
2023-07-15T12:51:20.848Z,8.00
2023-07-15T12:53:48.932Z,10.25
2023-07-15T12:56:17.295Z,9.50
2023-07-15T12:58:45.579Z,8.50
2023-07-15T13:01:13.653Z,9.50
2023-07-15T13:03:41.895Z,7.00
2023-07-15T13:06:10.076Z,8.75
2023-07-15T13:08:39.070Z,8.75
2023-07-15T13:11:07.924Z,7.00
2023-07-15T13:13:36.041Z,7.00
2023-07-15T13:16:04.151Z,9.75
2023-07-15T13:18:32.209Z,9.25
2023-07-15T13:21:00.475Z,7.50
2023-07-15T13:23:28.539Z,7.75
2023-07-15T13:25:56.630Z,6.25
2023-07-15T13:28:25.182Z,7.00
2023-07-15T13:30:53.264Z,8.50
2023-07-15T13:33:21.329Z,7.00
2023-07-15T13:35:49.527Z,6.25
2023-07-15T13:38:17.560Z,9.00
2023-07-15T13:40:45.720Z,6.75
2023-07-15T13:43:13.850Z,7.75
2023-07-15T13:45:41.991Z,7.00
2023-07-15T13:48:10.084Z,6.25
2023-07-15T13:50:38.172Z,7.25
2023-07-15T13:53:06.398Z,5.25
2023-07-15T13:55:34.433Z,7.00
2023-07-15T13:58:02.532Z,7.75
2023-07-15T14:00:31.069Z,8.00
2023-07-15T14:02:59.150Z,7.00
2023-07-15T14:05:27.234Z,8.00
2023-07-15T14:07:55.299Z,7.75
2023-07-15T14:10:23.412Z,8.25
2023-07-15T14:12:51.494Z,7.75
2023-07-15T14:15:19.611Z,7.75
2023-07-15T14:17:47.742Z,6.50
2023-07-15T14:20:17.517Z,7.25
2023-07-15T14:22:50.018Z,9.00
2023-07-15T14:25:20.092Z,8.00
2023-07-15T14:27:48.608Z,10.00
2023-07-15T14:30:16.722Z,8.50
2023-07-15T14:32:44.783Z,7.25
2023-07-15T14:35:12.900Z,8.50
2023-07-15T14:37:41.043Z,7.75
2023-07-15T14:40:09.459Z,9.75
2023-07-15T14:42:38.769Z,7.75
2023-07-15T14:45:07.770Z,8.25
2023-07-15T14:47:36.727Z,9.75
2023-07-15T14:50:05.080Z,9.00
2023-07-15T14:52:33.209Z,7.25
2023-07-15T14:55:01.318Z,7.00
2023-07-15T14:57:29.406Z,9.25
2023-07-15T14:59:57.475Z,9.00
2023-07-15T15:02:25.575Z,11.00
2023-07-15T15:04:53.750Z,8.75
2023-07-15T15:07:21.867Z,7.25
2023-07-15T15:09:49.970Z,7.00
2023-07-15T15:12:18.113Z,7.50
2023-07-15T15:14:46.109Z,8.25
2023-07-15T15:17:15.051Z,6.75
2023-07-15T15:19:43.215Z,7.75
2023-07-15T15:22:11.250Z,7.00
2023-07-15T15:24:39.303Z,6.50
2023-07-15T15:27:07.689Z,8.50
2023-07-15T15:29:35.802Z,8.75
2023-07-15T15:32:03.885Z,8.75
2023-07-15T15:34:32.034Z,8.25
2023-07-15T15:37:00.069Z,7.25
2023-07-15T15:39:28.099Z,6.50
2023-07-15T15:41:56.127Z,6.50
2023-07-15T15:44:24.250Z,6.50
2023-07-15T15:46:52.470Z,8.25
2023-07-15T15:49:21.055Z,7.50
2023-07-15T15:51:49.196Z,9.00
2023-07-15T15:54:17.279Z,8.25
2023-07-15T15:56:45.387Z,7.00
2023-07-15T15:59:13.464Z,6.50
2023-07-15T16:01:41.566Z,6.75
2023-07-15T16:04:09.835Z,6.75
2023-07-15T16:06:40.481Z,8.75
2023-07-15T16:09:10.419Z,8.00
2023-07-15T16:11:38.486Z,7.75
2023-07-15T16:14:06.610Z,8.75
2023-07-15T16:16:34.827Z,4.50
2023-07-15T16:19:03.544Z,5.25
2023-07-15T16:21:32.015Z,6.75
2023-07-15T16:24:00.047Z,6.75
2023-07-15T16:26:28.085Z,6.00
2023-07-15T16:28:56.093Z,8.00
2023-07-15T16:31:24.137Z,6.00
2023-07-15T16:33:52.219Z,8.00
2023-07-15T16:36:20.289Z,6.75
2023-07-15T16:38:48.407Z,5.75
2023-07-15T16:41:16.714Z,7.50
2023-07-15T16:43:45.113Z,6.25
2023-07-15T16:46:13.207Z,6.50
2023-07-15T16:48:43.563Z,6.50
2023-07-15T16:51:11.643Z,6.75
2023-07-15T16:53:39.702Z,7.75
2023-07-15T16:56:07.829Z,7.00
2023-07-15T16:58:35.834Z,8.25
2023-07-15T17:01:05.722Z,5.75
2023-07-15T17:03:34.076Z,5.75
2023-07-15T17:06:02.216Z,6.00
2023-07-15T17:08:30.373Z,6.25
2023-07-15T17:10:58.400Z,6.75
2023-07-15T17:13:28.926Z,5.00
2023-07-15T17:15:58.079Z,8.00
2023-07-15T17:18:26.111Z,7.25
2023-07-15T17:20:55.473Z,7.00
2023-07-15T17:23:24.010Z,8.00
2023-07-15T17:25:52.099Z,6.50
2023-07-15T17:28:20.309Z,7.00
2023-07-15T17:30:48.344Z,7.75
2023-07-15T17:33:16.450Z,7.50
2023-07-15T17:35:45.707Z,7.25
2023-07-15T17:38:13.712Z,6.00
2023-07-15T17:40:41.880Z,7.00
2023-07-15T17:43:09.931Z,5.75
2023-07-15T17:45:38.028Z,5.50
2023-07-15T17:48:08.612Z,7.00
2023-07-15T17:50:37.426Z,7.25
2023-07-15T17:53:05.659Z,7.75
2023-07-15T17:55:33.732Z,6.00
2023-07-15T17:58:01.812Z,8.00
2023-07-15T18:00:29.994Z,6.00
2023-07-15T18:02:58.134Z,8.50
2023-07-15T18:05:28.982Z,6.75
2023-07-15T18:07:57.357Z,6.00
2023-07-15T18:10:25.686Z,7.25
2023-07-15T18:12:53.685Z,6.25
2023-07-15T18:15:21.827Z,7.25
2023-07-15T18:17:49.942Z,6.00
2023-07-15T18:20:18.046Z,6.75
2023-07-15T18:22:46.487Z,6.50
2023-07-15T18:25:15.031Z,8.50
2023-07-15T18:27:43.313Z,7.25
2023-07-15T18:30:11.658Z,5.25
2023-07-15T18:32:40.227Z,6.00
2023-07-15T18:35:08.701Z,6.75
2023-07-15T18:37:36.814Z,6.50
2023-07-15T18:40:04.996Z,10.25
2023-07-15T18:42:33.142Z,7.75
2023-07-15T18:45:01.207Z,7.75
2023-07-15T18:47:29.372Z,6.00
2023-07-15T18:49:57.466Z,6.50
2023-07-15T18:52:25.640Z,7.25
2023-07-15T18:54:53.701Z,7.00
2023-07-15T18:57:23.301Z,9.00
2023-07-15T18:59:52.094Z,7.25
2023-07-15T19:02:20.319Z,8.50
2023-07-15T19:04:49.445Z,8.50
2023-07-15T19:07:17.553Z,7.75
2023-07-15T19:09:45.605Z,6.50
2023-07-15T19:12:13.663Z,8.75
2023-07-15T19:14:41.804Z,7.00
2023-07-15T19:17:10.071Z,6.00
2023-07-15T19:19:38.252Z,7.25
2023-07-15T19:22:06.523Z,9.00
2023-07-15T19:24:34.616Z,9.00
2023-07-15T19:27:02.672Z,7.75
2023-07-15T19:29:30.725Z,7.50
2023-07-15T19:31:58.952Z,7.00
2023-07-15T19:34:27.057Z,7.25
2023-07-15T19:36:55.065Z,7.00
2023-07-15T19:39:23.474Z,9.75
2023-07-15T19:41:51.526Z,7.00
2023-07-15T19:44:21.557Z,7.50
2023-07-15T19:46:49.629Z,8.50
2023-07-15T19:49:20.720Z,9.00
2023-07-15T19:51:48.850Z,7.75
2023-07-15T19:54:16.861Z,8.50
2023-07-15T19:56:44.927Z,6.75
2023-07-15T19:59:13.006Z,9.75
2023-07-15T20:01:41.125Z,8.50
2023-07-15T20:04:09.314Z,9.50
2023-07-15T20:06:37.584Z,5.00
2023-07-15T20:09:06.042Z,12.50
2023-07-15T20:11:34.267Z,6.75
2023-07-15T20:14:02.380Z,8.00
2023-07-15T20:16:30.704Z,7.50
2023-07-15T20:18:58.895Z,7.75
2023-07-15T20:21:26.981Z,8.25
2023-07-15T20:23:55.003Z,6.25
2023-07-15T20:26:23.078Z,7.50
2023-07-15T20:28:51.193Z,8.00
2023-07-15T20:31:19.459Z,8.50
2023-07-15T20:33:47.539Z,9.25
2023-07-15T20:36:15.873Z,9.25
2023-07-15T20:38:44.154Z,7.25
2023-07-15T20:41:12.265Z,7.00
2023-07-15T20:43:40.292Z,6.50
2023-07-15T20:46:08.375Z,7.25
2023-07-15T20:48:36.497Z,7.00
2023-07-15T20:51:04.702Z,8.50
2023-07-15T20:53:32.760Z,8.00
2023-07-15T20:56:00.884Z,7.50
2023-07-15T20:58:28.987Z,9.00
2023-07-15T21:00:57.591Z,8.00
2023-07-15T21:03:25.847Z,7.25
2023-07-15T21:06:04.163Z,7.00
2023-07-15T21:08:32.636Z,9.00
2023-07-15T21:11:01.368Z,8.25
2023-07-15T21:13:29.787Z,9.50
2023-07-15T21:15:58.025Z,9.00
2023-07-15T21:18:26.391Z,7.25
2023-07-15T21:20:54.867Z,7.00
2023-07-15T21:23:22.964Z,9.00
2023-07-15T21:25:52.375Z,7.00
2023-07-15T21:28:22.808Z,9.50
2023-07-15T21:30:50.899Z,9.00
2023-07-15T21:33:19.002Z,6.75
2023-07-15T21:35:47.017Z,8.25
2023-07-15T21:38:15.035Z,8.75
2023-07-15T21:40:46.464Z,10.25
2023-07-15T21:43:15.280Z,7.25
2023-07-15T21:45:44.061Z,7.50
2023-07-15T21:48:12.168Z,8.50
2023-07-15T21:50:40.244Z,9.00
2023-07-15T21:53:08.327Z,8.75
2023-07-15T21:55:36.671Z,8.00
2023-07-15T21:58:05.451Z,9.00
2023-07-15T22:00:36.763Z,9.00
2023-07-15T22:03:06.361Z,10.25
2023-07-15T22:05:34.592Z,7.50
2023-07-15T22:08:02.752Z,7.25
2023-07-15T22:10:30.870Z,10.00
2023-07-15T22:12:58.987Z,9.00
2023-07-15T22:15:27.125Z,9.75
2023-07-15T22:17:55.231Z,11.75
2023-07-15T22:20:25.112Z,9.50
2023-07-15T22:22:53.648Z,10.50
2023-07-15T22:25:21.765Z,7.25
2023-07-15T22:27:49.857Z,8.00
2023-07-15T22:30:17.977Z,8.25
2023-07-15T22:32:46.207Z,9.00
2023-07-15T22:35:14.291Z,9.75
2023-07-15T22:37:42.354Z,8.25
2023-07-15T22:40:10.732Z,11.00
2023-07-15T22:42:38.875Z,11.25
2023-07-15T22:45:07.385Z,10.50
2023-07-15T22:47:35.489Z,11.25
2023-07-15T22:50:03.906Z,9.50
2023-07-15T22:52:33.685Z,9.00
2023-07-15T22:55:03.081Z,11.75
2023-07-15T22:57:31.097Z,8.75
2023-07-15T22:59:59.146Z,6.75
2023-07-15T23:02:27.240Z,7.00
2023-07-15T23:04:55.357Z,9.00
2023-07-15T23:07:23.491Z,9.50
2023-07-15T23:09:51.504Z,11.75
2023-07-15T23:12:21.610Z,9.50
2023-07-15T23:14:49.689Z,10.25
2023-07-15T23:17:17.856Z,9.75
2023-07-15T23:19:47.407Z,10.00
2023-07-15T23:22:15.450Z,10.75
2023-07-15T23:24:43.503Z,10.00
2023-07-15T23:27:11.535Z,11.50
2023-07-15T23:29:39.603Z,10.50
2023-07-15T23:32:07.747Z,11.75
2023-07-15T23:34:35.835Z,9.75
2023-07-15T23:37:03.914Z,12.25
2023-07-15T23:39:31.921Z,9.00
2023-07-15T23:42:00.183Z,12.00
2023-07-15T23:44:28.206Z,13.25
2023-07-15T23:46:56.236Z,12.25
2023-07-15T23:49:24.474Z,12.25
2023-07-15T23:51:52.558Z,11.00
2023-07-15T23:54:20.706Z,9.75
2023-07-15T23:56:48.764Z,11.75
2023-07-15T23:59:16.787Z,10.00
